Time;durP1;ratioP1;P1;durP2;ratioP2;P2;SDS_P1;SDS_P2;PMS_P1;PMS_P2;Temp;Humidity;BMP_temperature;BMP_pressure;BME280_temperature;BME280_humidity;BME280_pressure;Samples;Min_cycle;Max_cycle;Signal;HPM_P1;HPM_P2
2021/06/16 00:01:49;;;;;;;5.87;3.27;;;22.80;25.90;;;;;;10473510;28;20228;-77
2021/06/16 00:06:52;;;;;;;3.97;3.57;;;22.50;25.70;;;;;;10478827;28;20225;-77
2021/06/16 00:11:57;;;;;;;3.50;3.20;;;22.30;25.90;;;;;;10471398;28;20715;-77
2021/06/16 00:17:00;;;;;;;3.17;2.87;;;22.20;26.60;;;;;;10476943;28;20224;-77
2021/06/16 00:22:04;;;;;;;4.70;3.13;;;22.20;26.20;;;;;;10481060;28;20303;-77
2021/06/16 00:27:09;;;;;;;4.07;3.77;;;22.10;26.50;;;;;;10473983;28;20224;-77
2021/06/16 00:32:12;;;;;;;3.47;3.17;;;22.10;26.70;;;;;;10469307;28;20229;-77
2021/06/16 00:37:15;;;;;;;3.50;3.20;;;22.00;26.60;;;;;;10473689;28;20236;-77
2021/06/16 00:42:22;;;;;;;3.43;3.13;;;22.00;26.70;;;;;;10471634;28;20245;-77
2021/06/16 00:47:26;;;;;;;3.40;3.10;;;22.00;27.10;;;;;;10472847;28;20224;-77
2021/06/16 00:52:29;;;;;;;4.43;3.10;;;22.00;26.70;;;;;;10475418;28;20740;-77
2021/06/16 00:57:35;;;;;;;4.93;3.40;;;22.00;26.70;;;;;;10471246;28;20224;-77
2021/06/16 01:02:42;;;;;;;3.80;3.27;;;21.90;26.80;;;;;;10467279;28;20228;-77
2021/06/16 01:07:52;;;;;;;3.47;3.17;;;21.90;27.20;;;;;;10472631;28;20239;-77
2021/06/16 01:13:13;;;;;;;3.87;3.30;;;21.90;27.40;;;;;;10470077;28;20243;-77
2021/06/16 01:18:20;;;;;;;2.90;2.70;;;21.80;27.40;;;;;;10470867;28;20235;-77
2021/06/16 01:23:49;;;;;;;4.77;3.27;;;21.80;27.10;;;;;;10469873;28;20736;-77
2021/06/16 01:28:59;;;;;;;3.50;3.20;;;21.70;27.40;;;;;;10472751;28;20232;-77
2021/06/16 01:34:03;;;;;;;5.20;3.67;;;21.60;27.70;;;;;;10471417;28;20232;-77
2021/06/16 01:39:08;;;;;;;3.93;3.57;;;21.50;27.10;;;;;;10472840;28;20233;-77
2021/06/16 01:44:14;;;;;;;4.17;2.93;;;21.20;27.30;;;;;;10474590;28;20783;-77
2021/06/16 01:49:20;;;;;;;3.73;3.43;;;21.00;27.80;;;;;;10472102;28;20228;-77
2021/06/16 01:54:25;;;;;;;6.60;3.60;;;20.90;27.70;;;;;;10471915;28;20631;-77
2021/06/16 01:59:30;;;;;;;4.00;3.60;;;20.90;27.90;;;;;;10474431;28;20232;-77
2021/06/16 02:04:34;;;;;;;4.73;3.57;;;20.80;28.30;;;;;;10468052;28;20232;-77
2021/06/16 02:09:38;;;;;;;4.17;3.30;;;20.70;27.80;;;;;;10472710;28;20225;-77
2021/06/16 02:14:49;;;;;;;4.20;3.60;;;20.70;28.00;;;;;;10466342;28;20239;-77
2021/06/16 02:19:55;;;;;;;3.80;3.50;;;20.50;28.60;;;;;;10471344;28;20236;-77
2021/06/16 02:24:59;;;;;;;3.53;2.93;;;20.30;28.30;;;;;;10465584;28;20858;-77
2021/06/16 02:30:05;;;;;;;3.53;3.23;;;20.20;28.30;;;;;;10467993;28;20228;-77
2021/06/16 02:35:10;;;;;;;4.13;3.57;;;20.10;29.20;;;;;;10471043;28;20708;-77
2021/06/16 02:40:16;;;;;;;3.70;3.40;;;20.10;28.80;;;;;;10468919;28;20722;-77
2021/06/16 02:45:22;;;;;;;3.47;3.17;;;20.10;29.10;;;;;;10466894;28;20233;-77
2021/06/16 02:50:27;;;;;;;4.17;3.23;;;20.10;29.20;;;;;;10470043;28;20224;-77
2021/06/16 02:55:32;;;;;;;3.73;3.43;;;20.10;29.10;;;;;;10474905;28;20236;-77
2021/06/16 03:00:38;;;;;;;3.40;3.10;;;20.00;28.80;;;;;;10468200;28;20229;-77
2021/06/16 03:05:42;;;;;;;3.97;3.67;;;20.00;29.40;;;;;;10469028;28;20229;-77
2021/06/16 03:10:45;;;;;;;3.47;3.17;;;20.00;29.00;;;;;;10467437;28;20232;-77
2021/06/16 03:15:50;;;;;;;3.37;3.17;;;20.00;29.00;;;;;;10465722;28;20240;-77
2021/06/16 03:20:58;;;;;;;3.70;3.40;;;20.00;29.40;;;;;;10467381;28;20225;-77
2021/06/16 03:26:02;;;;;;;3.33;2.93;;;20.00;29.50;;;;;;10470803;28;20240;-77
2021/06/16 03:31:08;;;;;;;4.40;3.17;;;20.00;29.10;;;;;;10465622;28;20622;-77
2021/06/16 03:36:12;;;;;;;3.87;2.90;;;20.00;29.50;;;;;;10465885;28;20228;-77
2021/06/16 03:41:16;;;;;;;4.27;3.60;;;20.00;29.10;;;;;;10465336;28;20228;-77
2021/06/16 03:46:23;;;;;;;4.43;3.60;;;20.00;29.30;;;;;;10468478;28;20232;-77
2021/06/16 03:51:27;;;;;;;3.37;3.17;;;20.10;29.80;;;;;;10466060;28;20642;-77
2021/06/16 03:56:31;;;;;;;4.27;3.87;;;20.10;29.40;;;;;;10469677;28;21004;-77
2021/06/16 04:01:37;;;;;;;6.83;3.70;;;20.10;29.60;;;;;;10469319;28;20248;-77
2021/06/16 04:06:46;;;;;;;5.23;4.00;;;20.00;29.80;;;;;;10466573;28;20232;-77
2021/06/16 04:11:50;;;;;;;8.60;4.60;;;19.90;29.80;;;;;;10468316;28;20236;-77
2021/06/16 04:16:57;;;;;;;6.50;4.50;;;19.90;29.80;;;;;;10463852;28;20232;-77
2021/06/16 04:22:01;;;;;;;10.20;4.63;;;19.80;31.70;;;;;;10467615;28;20232;-78
2021/06/16 04:27:05;;;;;;;5.60;4.40;;;19.80;30.20;;;;;;10472892;28;20217;-77
2021/06/16 04:32:10;;;;;;;4.83;4.00;;;19.80;30.40;;;;;;10472666;28;20232;-77
2021/06/16 04:37:13;;;;;;;6.20;4.27;;;19.80;30.90;;;;;;10475090;28;20235;-77
2021/06/16 04:42:19;;;;;;;7.93;4.47;;;19.80;30.50;;;;;;10474580;28;20695;-77
2021/06/16 04:47:23;;;;;;;5.07;4.43;;;19.80;30.90;;;;;;10466014;28;20240;-77
2021/06/16 04:52:28;;;;;;;5.07;4.67;;;19.80;31.40;;;;;;10474460;28;20731;-77
2021/06/16 04:57:32;;;;;;;4.87;4.40;;;19.90;31.20;;;;;;10474253;28;20236;-77
2021/06/16 05:02:36;;;;;;;4.73;4.33;;;19.80;31.30;;;;;;10472389;28;20233;-77
2021/06/16 05:07:39;;;;;;;4.83;4.20;;;19.90;32.30;;;;;;10468970;28;20237;-76
2021/06/16 05:12:43;;;;;;;5.40;4.93;;;20.00;31.50;;;;;;10476056;28;20259;-77
2021/06/16 05:17:48;;;;;;;5.57;5.07;;;20.10;32.00;;;;;;10468230;28;20236;-77
2021/06/16 05:22:52;;;;;;;6.80;4.87;;;20.20;32.10;;;;;;10470593;28;20236;-74
2021/06/16 05:27:55;;;;;;;6.23;5.63;;;20.40;31.80;;;;;;10470181;28;20576;-74
2021/06/16 05:32:59;;;;;;;4.97;4.47;;;20.50;32.30;;;;;;10468764;28;20227;-74
2021/06/16 05:38:04;;;;;;;5.93;4.77;;;20.70;32.90;;;;;;10469005;28;20228;-74
2021/06/16 05:43:08;;;;;;;6.20;5.60;;;20.90;32.70;;;;;;10470547;28;20236;-77
2021/06/16 05:48:12;;;;;;;7.57;5.47;;;21.00;32.90;;;;;;10467937;28;20221;-77
2021/06/16 05:53:15;;;;;;;5.73;5.20;;;21.20;33.50;;;;;;10474705;28;20228;-77
2021/06/16 05:58:19;;;;;;;5.70;4.97;;;21.40;33.10;;;;;;10476343;28;20221;-77
2021/06/16 06:03:23;;;;;;;6.17;5.27;;;21.60;33.10;;;;;;10468106;28;20247;-77
2021/06/16 06:08:26;;;;;;;5.50;5.00;;;21.80;33.50;;;;;;10465588;28;20228;-77
2021/06/16 06:13:29;;;;;;;6.53;5.93;;;22.10;33.20;;;;;;10470354;28;20243;-77
2021/06/16 06:18:34;;;;;;;6.67;5.20;;;22.30;33.20;;;;;;10466227;28;20234;-77
2021/06/16 06:23:38;;;;;;;5.50;4.93;;;22.50;33.60;;;;;;10472384;28;20240;-77
2021/06/16 06:28:43;;;;;;;6.47;5.20;;;22.80;33.30;;;;;;10469922;28;20221;-77
2021/06/16 06:33:47;;;;;;;6.57;5.87;;;23.00;33.30;;;;;;10465623;28;20235;-78
2021/06/16 06:38:50;;;;;;;6.33;5.73;;;23.30;33.20;;;;;;10473953;28;20229;-77
2021/06/16 06:43:54;;;;;;;6.03;5.43;;;23.50;32.70;;;;;;10469778;28;20232;-77
2021/06/16 06:48:58;;;;;;;6.13;5.53;;;23.80;33.10;;;;;;10469016;28;20229;-77
2021/06/16 06:54:02;;;;;;;6.47;5.83;;;23.90;32.60;;;;;;10468323;28;20232;-77
2021/06/16 06:59:07;;;;;;;4.83;4.53;;;24.20;32.40;;;;;;10470778;28;20274;-77
2021/06/16 07:04:11;;;;;;;5.27;4.77;;;24.40;32.30;;;;;;10463164;28;20233;-77
2021/06/16 07:09:15;;;;;;;6.07;4.77;;;24.60;32.30;;;;;;10469719;28;20327;-74
2021/06/16 07:14:18;;;;;;;6.30;4.50;;;24.80;31.70;;;;;;10466876;28;20758;-74
2021/06/16 07:19:23;;;;;;;4.33;3.93;;;25.00;31.30;;;;;;10467587;28;21730;-74
2021/06/16 07:24:26;;;;;;;4.80;4.30;;;25.20;30.90;;;;;;10462720;28;20240;-75
2021/06/16 07:29:29;;;;;;;4.60;4.20;;;25.40;31.00;;;;;;10464527;28;20235;-74
2021/06/16 07:34:34;;;;;;;4.70;4.30;;;25.60;31.00;;;;;;10464790;28;20224;-74
2021/06/16 07:39:37;;;;;;;4.93;4.40;;;25.90;30.60;;;;;;10475703;28;20224;-74
2021/06/16 07:44:40;;;;;;;4.43;3.90;;;26.00;30.70;;;;;;10471386;28;20232;-75
2021/06/16 07:49:45;;;;;;;4.13;3.80;;;26.30;30.50;;;;;;10467074;28;20232;-74
2021/06/16 07:54:48;;;;;;;4.40;3.97;;;26.40;30.20;;;;;;10480615;28;20228;-79
2021/06/16 07:59:51;;;;;;;4.17;3.77;;;26.70;30.10;;;;;;10481993;28;20241;-79
2021/06/16 08:04:56;;;;;;;4.03;3.63;;;26.90;30.00;;;;;;10487595;28;20240;-79
2021/06/16 08:09:59;;;;;;;3.47;3.17;;;27.10;29.80;;;;;;10486694;28;20234;-79
2021/06/16 08:15:03;;;;;;;4.13;3.83;;;27.50;29.70;;;;;;10487147;28;20236;-78
2021/06/16 08:20:11;;;;;;;4.10;3.60;;;27.80;29.10;;;;;;10480077;28;20227;-78
2021/06/16 08:25:15;;;;;;;3.80;3.50;;;28.00;28.40;;;;;;10481757;28;20238;-75
2021/06/16 08:30:19;;;;;;;4.93;2.93;;;28.30;28.70;;;;;;10477534;28;20225;-73
2021/06/16 08:35:24;;;;;;;3.20;2.90;;;28.50;27.20;;;;;;10472883;28;20229;-74
2021/06/16 08:40:27;;;;;;;2.90;2.70;;;28.80;26.30;;;;;;10466562;28;20628;-74
2021/06/16 08:45:37;;;;;;;3.23;2.80;;;29.00;26.30;;;;;;10465643;28;20235;-74
2021/06/16 08:50:42;;;;;;;3.90;2.77;;;29.40;24.70;;;;;;10469510;28;20220;-74
2021/06/16 08:55:45;;;;;;;3.10;2.90;;;29.60;25.00;;;;;;10471915;28;20239;-74
2021/06/16 09:00:48;;;;;;;3.30;2.83;;;29.90;25.00;;;;;;10471483;28;20228;-73
2021/06/16 09:05:53;;;;;;;2.70;2.50;;;30.10;24.10;;;;;;10473424;28;20264;-73
2021/06/16 09:10:57;;;;;;;2.63;2.53;;;30.30;23.20;;;;;;10472914;28;20698;-73
2021/06/16 09:16:02;;;;;;;3.00;2.80;;;30.50;23.70;;;;;;10472437;28;20228;-74
2021/06/16 09:21:06;;;;;;;3.13;2.60;;;30.60;23.30;;;;;;10470729;28;20334;-74
2021/06/16 09:26:12;;;;;;;2.90;2.70;;;30.80;22.70;;;;;;10471276;28;20228;-74
2021/06/16 09:31:16;;;;;;;3.03;2.73;;;31.00;22.50;;;;;;10483317;28;20222;-81
2021/06/16 09:36:23;;;;;;;2.80;2.60;;;31.20;21.70;;;;;;10479745;28;20232;-74
2021/06/16 09:41:26;;;;;;;2.70;2.50;;;31.20;21.10;;;;;;10472768;28;20242;-74
2021/06/16 09:46:30;;;;;;;2.60;2.40;;;31.30;21.80;;;;;;10469213;28;20229;-74
2021/06/16 09:51:36;;;;;;;3.57;2.50;;;31.40;21.60;;;;;;10464657;28;20308;-74
2021/06/16 09:56:41;;;;;;;2.77;2.50;;;31.50;20.10;;;;;;10473810;28;20225;-77
2021/06/16 10:01:54;;;;;;;4.17;2.57;;;31.60;20.90;;;;;;10477066;28;20233;-82
2021/06/16 10:07:23;;;;;;;3.10;2.70;;;31.60;19.50;;;;;;10481701;28;20293;-75
2021/06/16 10:12:29;;;;;;;2.70;2.50;;;31.70;19.60;;;;;;10474655;28;20324;-75
2021/06/16 10:17:40;;;;;;;2.90;2.70;;;31.80;19.00;;;;;;10472931;28;20663;-76
2021/06/16 10:22:45;;;;;;;2.60;2.40;;;31.80;19.80;;;;;;10474808;28;20236;-76
2021/06/16 10:28:00;;;;;;;2.70;2.47;;;31.90;19.40;;;;;;10473998;28;20213;-75
2021/06/16 10:33:30;;;;;;;2.30;2.20;;;32.00;18.10;;;;;;10469068;28;20594;-76
2021/06/16 10:38:35;;;;;;;2.50;2.30;;;32.10;18.90;;;;;;10472865;28;20311;-76
2021/06/16 10:43:39;;;;;;;2.87;2.67;;;32.10;18.50;;;;;;10477620;28;20230;-76
2021/06/16 10:48:58;;;;;;;2.80;2.60;;;32.10;18.70;;;;;;10476609;28;20233;-76
2021/06/16 10:54:26;;;;;;;2.30;2.20;;;32.20;17.20;;;;;;10478234;28;20242;-76
2021/06/16 11:00:07;;;;;;;2.53;2.33;;;32.30;18.40;;;;;;10476692;28;20677;-76
2021/06/16 11:05:20;;;;;;;2.60;2.40;;;32.30;18.90;;;;;;10474552;28;20229;-76
2021/06/16 11:10:52;;;;;;;2.80;2.60;;;32.50;17.40;;;;;;10471557;28;20236;-76
2021/06/16 11:15:56;;;;;;;2.60;2.40;;;32.60;18.40;;;;;;10478516;28;20229;-76
2021/06/16 11:20:59;;;;;;;3.00;2.57;;;32.60;18.00;;;;;;10481634;28;20703;-76
2021/06/16 11:26:04;;;;;;;2.60;2.40;;;32.70;17.60;;;;;;10474768;28;20236;-77
2021/06/16 11:31:09;;;;;;;2.67;2.47;;;32.70;16.90;;;;;;10466981;28;20223;-76
2021/06/16 11:36:27;;;;;;;2.57;2.37;;;32.80;17.50;;;;;;10479302;28;20228;-76
2021/06/16 11:41:32;;;;;;;2.60;2.40;;;32.90;16.80;;;;;;10483570;28;20599;-76
2021/06/16 11:46:36;;;;;;;3.27;2.97;;;32.90;17.20;;;;;;10477088;28;20237;-76
2021/06/16 11:51:43;;;;;;;2.90;2.70;;;33.00;17.20;;;;;;10483305;28;20242;-76
2021/06/16 11:56:49;;;;;;;3.17;2.80;;;33.20;16.70;;;;;;10482944;28;20616;-76
2021/06/16 12:02:03;;;;;;;2.40;2.30;;;33.30;16.70;;;;;;10483007;28;20345;-76
2021/06/16 12:07:21;;;;;;;2.93;2.67;;;33.30;16.40;;;;;;10484423;28;20228;-76
2021/06/16 12:12:26;;;;;;;2.90;2.70;;;33.20;15.90;;;;;;10478527;28;20574;-77
2021/06/16 12:17:29;;;;;;;4.37;2.50;;;33.30;16.00;;;;;;10476536;28;20320;-76
2021/06/16 12:22:32;;;;;;;2.87;2.67;;;33.30;16.60;;;;;;10478880;28;20260;-74
2021/06/16 12:27:37;;;;;;;3.13;2.70;;;33.30;16.50;;;;;;10470806;28;20247;-76
2021/06/16 12:32:43;;;;;;;2.70;2.50;;;33.30;16.10;;;;;;10475906;28;20260;-75
2021/06/16 12:37:48;;;;;;;3.00;2.67;;;33.30;16.50;;;;;;10473789;28;20229;-78
2021/06/16 12:42:52;;;;;;;2.60;2.40;;;33.30;16.00;;;;;;10475036;28;20721;-77
2021/06/16 12:47:56;;;;;;;2.60;2.43;;;33.30;15.80;;;;;;10468074;28;20847;-77
2021/06/16 12:53:11;;;;;;;2.97;2.50;;;33.30;15.60;;;;;;10473050;28;20236;-77
2021/06/16 12:58:16;;;;;;;2.57;2.20;;;33.30;15.50;;;;;;10476876;28;20225;-78
2021/06/16 13:03:22;;;;;;;2.63;2.40;;;33.30;15.30;;;;;;10476517;28;20233;-78
2021/06/16 13:08:37;;;;;;;2.50;2.30;;;33.30;15.10;;;;;;10477523;28;20226;-78
2021/06/16 13:13:41;;;;;;;2.50;2.30;;;33.30;14.40;;;;;;10479227;28;20721;-78
2021/06/16 13:18:44;;;;;;;2.43;2.23;;;33.30;14.20;;;;;;10478390;28;20258;-79
2021/06/16 13:23:53;;;;;;;2.53;2.30;;;33.30;14.80;;;;;;10480395;28;20596;-80
2021/06/16 13:29:03;;;;;;;2.47;2.10;;;33.40;14.00;;;;;;10478404;28;20229;-75
2021/06/16 13:34:11;;;;;;;2.53;2.17;;;33.30;14.30;;;;;;10473061;28;20609;-76
2021/06/16 13:39:15;;;;;;;2.30;2.10;;;33.40;14.30;;;;;;10470634;28;20227;-76
2021/06/16 13:44:20;;;;;;;2.20;2.00;;;33.40;14.20;;;;;;10473346;28;20234;-75
2021/06/16 13:49:23;;;;;;;2.70;2.30;;;33.50;14.10;;;;;;10472792;28;20231;-75
2021/06/16 13:54:26;;;;;;;2.50;2.30;;;33.60;14.60;;;;;;10475694;28;20350;-74
2021/06/16 13:59:31;;;;;;;2.77;2.40;;;33.70;14.30;;;;;;10470854;28;20230;-75
2021/06/16 14:04:34;;;;;;;2.33;2.13;;;33.70;13.90;;;;;;10469965;28;20237;-72
2021/06/16 14:09:37;;;;;;;2.47;2.27;;;33.70;14.20;;;;;;10469807;28;20232;-75
2021/06/16 14:14:42;;;;;;;2.67;2.47;;;33.70;14.10;;;;;;10467848;28;20227;-74
2021/06/16 14:19:45;;;;;;;2.67;2.47;;;33.80;13.80;;;;;;10468549;28;20319;-74
2021/06/16 14:24:48;;;;;;;2.60;2.40;;;33.90;13.90;;;;;;10465216;28;20262;-74
2021/06/16 14:29:53;;;;;;;2.47;2.27;;;33.90;13.80;;;;;;10469244;28;20611;-74
2021/06/16 14:34:56;;;;;;;2.43;2.23;;;33.90;13.10;;;;;;10468267;28;20241;-74
2021/06/16 14:39:59;;;;;;;2.33;2.23;;;33.90;13.40;;;;;;10467988;28;20595;-74
2021/06/16 14:45:05;;;;;;;2.60;2.40;;;33.90;13.40;;;;;;10466278;28;20234;-75
2021/06/16 14:50:09;;;;;;;2.60;2.40;;;33.90;13.10;;;;;;10466911;28;20322;-75
2021/06/16 14:55:14;;;;;;;2.60;2.40;;;33.90;13.20;;;;;;10468574;28;20240;-74
2021/06/16 15:00:20;;;;;;;2.50;2.30;;;34.00;13.30;;;;;;10463510;28;20501;-74
2021/06/16 15:05:24;;;;;;;2.83;2.57;;;34.00;12.60;;;;;;10468783;28;20244;-74
2021/06/16 15:10:27;;;;;;;2.63;2.43;;;34.10;12.70;;;;;;10469001;28;20573;-73
2021/06/16 15:15:31;;;;;;;3.20;2.30;;;34.00;12.70;;;;;;10465443;28;20232;-74
2021/06/16 15:20:35;;;;;;;2.57;2.37;;;33.90;12.50;;;;;;10469261;28;20230;-77
2021/06/16 15:25:40;;;;;;;2.80;2.60;;;33.90;12.90;;;;;;10469453;28;20950;-77
2021/06/16 15:30:44;;;;;;;2.57;2.37;;;34.00;13.10;;;;;;10469391;28;20237;-78
2021/06/16 15:35:48;;;;;;;2.53;2.33;;;34.10;12.70;;;;;;10466874;28;20663;-78
2021/06/16 15:40:52;;;;;;;2.60;2.40;;;34.10;12.70;;;;;;10471182;28;20793;-78
2021/06/16 15:45:57;;;;;;;2.80;2.60;;;34.10;12.70;;;;;;10470023;28;20258;-80
2021/06/16 15:51:02;;;;;;;4.27;2.60;;;34.00;13.20;;;;;;10465940;28;20322;-78
2021/06/16 15:56:06;;;;;;;3.40;2.90;;;34.00;12.60;;;;;;10461283;28;20684;-76
2021/06/16 16:01:12;;;;;;;3.10;2.83;;;33.90;12.60;;;;;;10459924;28;20226;-75
2021/06/16 16:06:15;;;;;;;3.37;3.07;;;33.90;12.50;;;;;;10467829;28;20721;-74
2021/06/16 16:11:20;;;;;;;3.17;2.87;;;33.80;13.10;;;;;;10465638;28;20236;-75
2021/06/16 16:16:24;;;;;;;3.20;2.90;;;33.90;12.90;;;;;;10466614;28;20233;-74
2021/06/16 16:21:28;;;;;;;3.20;2.90;;;33.90;13.00;;;;;;10467153;28;20325;-78
2021/06/16 16:26:31;;;;;;;8.57;7.67;;;33.90;12.80;;;;;;10470292;28;20729;-78
2021/06/16 16:31:36;;;;;;;4.67;3.87;;;34.00;12.80;;;;;;10476768;28;20231;-78
2021/06/16 16:36:41;;;;;;;3.20;2.90;;;34.00;12.60;;;;;;10483903;28;20230;-78
2021/06/16 16:41:44;;;;;;;4.87;2.97;;;34.00;12.60;;;;;;10477202;28;20253;-78
2021/06/16 16:46:49;;;;;;;3.50;3.20;;;33.90;12.50;;;;;;10480426;28;20231;-78
2021/06/16 16:51:52;;;;;;;2.80;2.60;;;33.90;12.50;;;;;;10473743;28;20236;-79
2021/06/16 16:56:57;;;;;;;2.50;2.30;;;33.90;12.50;;;;;;10473130;28;20227;-78
2021/06/16 17:02:01;;;;;;;2.87;2.67;;;33.90;12.50;;;;;;10470069;28;20235;-78
2021/06/16 17:07:05;;;;;;;2.80;2.60;;;33.90;12.50;;;;;;10492191;28;20293;-77
2021/06/16 17:12:10;;;;;;;2.80;2.60;;;33.90;12.50;;;;;;10473225;28;20234;-78
2021/06/16 17:17:14;;;;;;;3.57;2.60;;;33.90;12.50;;;;;;10471898;28;20232;-74
2021/06/16 17:22:18;;;;;;;2.97;2.70;;;33.90;12.50;;;;;;10468047;28;20237;-74
2021/06/16 17:27:21;;;;;;;2.80;2.60;;;33.90;12.50;;;;;;10475078;28;20237;-74
2021/06/16 17:32:26;;;;;;;2.87;2.67;;;33.70;12.50;;;;;;10465054;28;20651;-75
2021/06/16 17:37:30;;;;;;;2.90;2.70;;;33.60;12.40;;;;;;10470199;28;20252;-74
2021/06/16 17:42:34;;;;;;;2.50;2.40;;;33.50;12.50;;;;;;10470844;28;20720;-80
2021/06/16 17:47:40;;;;;;;2.83;2.63;;;33.40;12.80;;;;;;10484391;28;20228;-80
2021/06/16 17:52:45;;;;;;;2.50;2.37;;;33.40;13.00;;;;;;10486897;28;20233;-79
2021/06/16 17:57:48;;;;;;;2.83;2.40;;;33.30;13.00;;;;;;10480283;28;20250;-80
2021/06/16 18:02:54;;;;;;;2.67;2.47;;;33.30;13.00;;;;;;10481515;28;20241;-79
2021/06/16 18:08:01;;;;;;;2.50;2.30;;;33.30;13.30;;;;;;10481755;28;20327;-79
2021/06/16 18:13:06;;;;;;;5.23;2.70;;;33.20;13.30;;;;;;10481454;28;20241;-75
2021/06/16 18:18:11;;;;;;;2.50;2.30;;;33.20;14.20;;;;;;10468538;28;20232;-75
2021/06/16 18:23:15;;;;;;;2.60;2.40;;;33.10;14.30;;;;;;10466101;28;20645;-74
2021/06/16 18:28:18;;;;;;;2.40;2.20;;;33.00;14.20;;;;;;10464997;28;20235;-75
2021/06/16 18:33:23;;;;;;;2.43;2.33;;;32.80;14.30;;;;;;10468239;28;20744;-78
2021/06/16 18:38:27;;;;;;;2.67;2.47;;;32.70;14.90;;;;;;10476791;28;20229;-79
2021/06/16 18:43:32;;;;;;;4.63;2.70;;;32.50;15.10;;;;;;10477631;28;20239;-79
2021/06/16 18:48:37;;;;;;;2.80;2.60;;;32.30;15.80;;;;;;10470599;28;20236;-79
2021/06/16 18:53:41;;;;;;;2.80;2.60;;;32.20;16.00;;;;;;10440544;28;20796;-79
2021/06/16 18:58:49;;;;;;;3.10;2.80;;;32.00;16.00;;;;;;10467883;28;20579;-79
2021/06/16 19:03:56;;;;;;;2.83;2.63;;;31.80;16.30;;;;;;10474713;28;20754;-81
2021/06/16 19:09:14;;;;;;;2.80;2.60;;;31.60;16.70;;;;;;10476734;28;20220;-82
2021/06/16 19:14:20;;;;;;;2.70;2.43;;;31.30;17.20;;;;;;10489172;28;20302;-82
2021/06/16 19:19:25;;;;;;;4.33;3.00;;;31.10;16.80;;;;;;10455849;28;20225;-75
2021/06/16 19:24:30;;;;;;;3.10;2.90;;;31.00;17.30;;;;;;10466920;28;20256;-75
2021/06/16 19:29:39;;;;;;;3.20;3.00;;;30.80;17.20;;;;;;10478572;28;20260;-76
2021/06/16 19:34:45;;;;;;;3.87;2.93;;;30.70;17.50;;;;;;10465304;28;20240;-76
2021/06/16 19:50:43;;;;;;;3.43;2.70;;;30.20;18.30;;;;;;10469293;28;20296;-80
2021/06/16 19:56:05;;;;;;;2.70;2.53;;;30.00;18.60;;;;;;10484534;28;20239;-83
2021/06/16 20:07:22;;;;;;;3.60;2.70;;;29.60;18.90;;;;;;10470912;28;20747;-81
2021/06/16 20:12:43;;;;;;;2.87;2.67;;;29.40;18.70;;;;;;10482277;28;20236;-81
2021/06/16 20:17:56;;;;;;;2.87;2.67;;;29.30;19.00;;;;;;10467742;28;20228;-81
2021/06/16 20:28:32;;;;;;;2.93;2.53;;;29.00;19.30;;;;;;10473180;28;20241;-80
2021/06/16 20:34:05;;;;;;;3.10;2.90;;;28.80;19.70;;;;;;10483695;28;20282;-81
2021/06/16 20:44:33;;;;;;;3.03;2.83;;;28.40;20.30;;;;;;10482580;28;20232;-77
2021/06/16 20:49:49;;;;;;;3.13;2.70;;;28.20;20.20;;;;;;10475869;28;20224;-78
2021/06/16 20:54:57;;;;;;;3.77;2.83;;;28.00;20.10;;;;;;10454361;28;20710;-76
2021/06/16 21:00:01;;;;;;;3.00;2.80;;;27.90;20.20;;;;;;10464919;28;20235;-79
2021/06/16 21:05:34;;;;;;;3.53;3.23;;;27.70;19.90;;;;;;10484929;28;20564;-81
2021/06/16 21:10:40;;;;;;;3.10;2.90;;;27.50;20.60;;;;;;10475160;28;20220;-78
2021/06/16 21:15:46;;;;;;;3.20;2.90;;;27.50;20.70;;;;;;10486032;28;20320;-78
2021/06/16 21:20:51;;;;;;;3.90;2.67;;;27.40;20.70;;;;;;10480911;28;20239;-76
2021/06/16 21:26:00;;;;;;;3.77;3.27;;;27.30;20.60;;;;;;10482674;28;20236;-76
2021/06/16 21:36:22;;;;;;;4.90;3.17;;;27.10;21.30;;;;;;10337527;28;20230;-73
2021/06/16 21:41:27;;;;;;;3.70;3.40;;;27.00;21.00;;;;;;10334945;28;20717;-74
2021/06/16 21:46:30;;;;;;;4.87;3.40;;;26.90;21.40;;;;;;10325131;28;20231;-75
2021/06/16 21:51:33;;;;;;;3.20;3.00;;;26.80;21.20;;;;;;10348060;28;20254;-74
2021/06/16 21:56:39;;;;;;;4.57;3.03;;;26.50;21.30;;;;;;10342099;28;20314;-74
2021/06/16 22:01:42;;;;;;;5.33;3.23;;;26.40;21.80;;;;;;10345756;28;20320;-74
2021/06/16 22:06:46;;;;;;;3.40;3.10;;;26.30;21.70;;;;;;10335949;28;20234;-74
2021/06/16 22:11:51;;;;;;;3.90;3.20;;;26.00;21.60;;;;;;10346197;28;20599;-74
2021/06/16 22:16:55;;;;;;;3.63;3.33;;;25.70;22.20;;;;;;10352868;28;20269;-74
2021/06/16 22:21:58;;;;;;;3.60;3.30;;;25.50;22.40;;;;;;10359923;28;20301;-74
2021/06/16 22:27:04;;;;;;;4.00;3.70;;;25.30;22.60;;;;;;10336728;28;20237;-74
2021/06/16 22:32:08;;;;;;;3.30;3.00;;;25.10;23.20;;;;;;10349358;28;20231;-74
2021/06/16 22:37:12;;;;;;;3.40;3.10;;;24.90;23.10;;;;;;10443575;28;20240;-73
2021/06/16 22:42:16;;;;;;;3.17;2.97;;;24.60;23.00;;;;;;10404306;28;20248;-73
2021/06/16 22:47:19;;;;;;;3.90;3.47;;;24.60;23.70;;;;;;10389759;28;20241;-74
2021/06/16 22:52:23;;;;;;;3.80;3.10;;;24.50;23.30;;;;;;10386874;28;20249;-74
2021/06/16 22:57:28;;;;;;;4.17;3.43;;;24.40;23.40;;;;;;10368456;28;20241;-73
2021/06/16 23:02:31;;;;;;;3.30;3.10;;;24.30;23.90;;;;;;10376270;28;20272;-73
2021/06/16 23:07:35;;;;;;;2.73;2.53;;;24.20;23.60;;;;;;10374006;28;20230;-73
2021/06/16 23:12:40;;;;;;;2.90;2.70;;;24.10;23.80;;;;;;10389174;28;20308;-73
2021/06/16 23:17:44;;;;;;;2.90;2.70;;;24.00;24.10;;;;;;10368283;28;20230;-74
2021/06/16 23:22:48;;;;;;;3.80;2.90;;;23.90;23.80;;;;;;10375843;28;20244;-74
2021/06/16 23:27:53;;;;;;;3.07;2.80;;;23.80;24.20;;;;;;10384074;28;20426;-73
2021/06/16 23:32:56;;;;;;;2.83;2.63;;;23.80;24.40;;;;;;10389062;28;20246;-73
2021/06/16 23:38:00;;;;;;;3.30;3.10;;;23.70;24.30;;;;;;10374342;28;20675;-73
2021/06/16 23:43:06;;;;;;;3.80;2.97;;;23.60;24.50;;;;;;10343632;28;20663;-73
2021/06/16 23:48:09;;;;;;;3.43;2.70;;;23.50;24.70;;;;;;10365955;28;20238;-73
2021/06/16 23:53:13;;;;;;;3.03;2.77;;;23.50;24.50;;;;;;10360188;28;20321;-73
2021/06/16 23:58:17;;;;;;;3.27;3.07;;;23.40;24.40;;;;;;10355544;28;20321;-73
